Time,TemperatureF,DewpointF,PressureIn,WindDirection,WindDirectionDegrees,WindSpeedMPH,WindSpeedGustMPH,Humidity,HourlyPrecipIn,Conditions,Clouds,dailyrainin,SolarRadiationWatts/m^2,SoftwareType,DateUTC
2013-04-06 00:00:00,25.0,17.0,-100.00,SSE,157,0.0,-999.0,72,-99.99,,,-99.99,0.000000,,2013-04-06 04:00:00,
2013-04-06 00:43:00,25.0,17.0,-100.00,SSE,157,0.0,-999.0,72,-99.99,,,-99.99,0.000000,,2013-04-06 04:43:00,
2013-04-06 00:53:00,25.0,17.0,-100.00,SSE,157,0.0,-999.0,72,-99.99,,,-99.99,0.000000,,2013-04-06 04:53:00,
2013-04-06 01:00:00,24.0,17.0,-100.00,SSE,157,0.0,-999.0,74,-99.99,,,-99.99,0.000000,,2013-04-06 05:00:00,
2013-04-06 01:43:00,24.0,17.0,-100.00,SSE,157,0.0,-999.0,74,-99.99,,,-99.99,0.000000,,2013-04-06 05:43:00,
2013-04-06 01:52:00,24.0,17.0,-100.00,SSE,157,0.0,-999.0,74,-99.99,,,-99.99,0.000000,,2013-04-06 05:52:00,
2013-04-06 02:00:00,24.0,18.0,-100.00,SE,135,1.0,-999.0,77,-99.99,,,-99.99,0.000000,,2013-04-06 06:00:00,
2013-04-06 02:43:00,24.0,18.0,-100.00,SE,135,1.0,-999.0,77,-99.99,,,-99.99,0.000000,,2013-04-06 06:43:00,
2013-04-06 02:53:00,24.0,18.0,-100.00,SE,135,1.0,-999.0,77,-99.99,,,-99.99,0.000000,,2013-04-06 06:53:00,
2013-04-06 03:00:00,28.0,21.0,-100.00,SE,135,3.0,-999.0,75,-99.99,,,-99.99,0.000000,,2013-04-06 07:00:00,
2013-04-06 03:45:00,28.0,21.0,-100.00,SE,135,3.0,-999.0,75,-99.99,,,-99.99,0.000000,,2013-04-06 07:45:00,
2013-04-06 03:53:00,28.0,21.0,-100.00,SE,135,3.0,-999.0,75,-99.99,,,-99.99,0.000000,,2013-04-06 07:53:00,
2013-04-06 04:00:00,29.0,21.0,-100.00,SSE,157,4.0,-999.0,71,-99.99,,,-99.99,0.000000,,2013-04-06 08:00:00,
2013-04-06 04:43:00,29.0,21.0,-100.00,SSE,157,4.0,-999.0,71,-99.99,,,-99.99,0.000000,,2013-04-06 08:43:00,
2013-04-06 04:52:00,29.0,21.0,-100.00,SSE,157,4.0,-999.0,71,-99.99,,,-99.99,0.000000,,2013-04-06 08:52:00,
2013-04-06 05:00:00,29.0,20.0,-100.00,SE,135,5.0,-999.0,67,-99.99,,,-99.99,0.000000,,2013-04-06 09:00:00,
2013-04-06 05:43:00,29.0,20.0,-100.00,SE,135,5.0,-999.0,67,-99.99,,,-99.99,0.000000,,2013-04-06 09:43:00,
2013-04-06 05:53:00,29.0,20.0,-100.00,SE,135,5.0,-999.0,67,-99.99,,,-99.99,0.000000,,2013-04-06 09:53:00,
2013-04-06 06:00:00,30.0,19.0,-100.00,SE,135,6.0,-999.0,63,-99.99,,,-99.99,0.000000,,2013-04-06 10:00:00,
2013-04-06 06:43:00,30.0,19.0,-100.00,SE,135,6.0,-999.0,63,-99.99,,,-99.99,0.000000,,2013-04-06 10:43:00,
2013-04-06 06:54:00,30.0,19.0,-100.00,SE,135,6.0,-999.0,63,-99.99,,,-99.99,0.000000,,2013-04-06 10:54:00,
2013-04-06 07:00:00,30.0,17.0,-100.00,SE,135,7.0,-999.0,58,-99.99,,,-99.99,0.000000,,2013-04-06 11:00:00,
2013-04-06 07:43:00,30.0,17.0,-100.00,SE,135,7.0,-999.0,58,-99.99,,,-99.99,0.000000,,2013-04-06 11:43:00,
2013-04-06 07:53:00,30.0,17.0,-100.00,SE,135,7.0,-999.0,58,-99.99,,,-99.99,0.000000,,2013-04-06 11:53:00,
2013-04-06 08:00:00,30.0,17.0,-100.00,SE,135,8.0,-999.0,58,-99.99,,,-99.99,9.280000,,2013-04-06 12:00:00,
2013-04-06 08:44:00,30.0,17.0,-100.00,SE,135,8.0,-999.0,58,-99.99,,,-99.99,9.280000,,2013-04-06 12:44:00,
2013-04-06 08:53:00,30.0,17.0,-100.00,SE,135,8.0,-999.0,58,-99.99,,,-99.99,9.280000,,2013-04-06 12:53:00,
2013-04-06 09:00:00,30.0,18.0,-100.00,SE,135,8.0,-999.0,59,-99.99,,,-99.99,34.799999,,2013-04-06 13:00:00,
2013-04-06 09:43:00,30.0,18.0,-100.00,SE,135,8.0,-999.0,59,-99.99,,,-99.99,34.799999,,2013-04-06 13:43:00,
2013-04-06 09:54:00,30.0,18.0,-100.00,SE,135,8.0,-999.0,59,-99.99,,,-99.99,34.799999,,2013-04-06 13:54:00,
2013-04-06 10:00:00,28.0,25.0,-100.00,SE,135,8.0,-999.0,85,-99.99,,,-99.99,32.480000,,2013-04-06 14:00:00,
2013-04-06 10:43:00,28.0,25.0,-100.00,SE,135,8.0,-999.0,85,-99.99,,,-99.99,32.480000,,2013-04-06 14:43:00,
2013-04-06 10:53:00,28.0,25.0,-100.00,SE,135,8.0,-999.0,85,-99.99,,,-99.99,32.480000,,2013-04-06 14:53:00,
2013-04-06 11:00:00,29.0,28.0,-100.00,SE,135,11.0,-999.0,94,-99.99,,,-99.99,78.879997,,2013-04-06 15:00:00,
2013-04-06 11:43:00,29.0,28.0,-100.00,SE,135,11.0,-999.0,94,-99.99,,,-99.99,78.879997,,2013-04-06 15:43:00,
2013-04-06 11:54:00,29.0,28.0,-100.00,SE,135,11.0,-999.0,94,-99.99,,,-99.99,78.879997,,2013-04-06 15:54:00,
2013-04-06 12:00:00,31.0,28.0,-100.00,SE,135,12.0,-999.0,88,-99.99,,,-99.99,161.240005,,2013-04-06 16:00:00,
2013-04-06 12:43:00,31.0,28.0,-100.00,SE,135,12.0,-999.0,88,-99.99,,,-99.99,161.240005,,2013-04-06 16:43:00,
2013-04-06 12:53:00,31.0,28.0,-100.00,SE,135,12.0,-999.0,88,-99.99,,,-99.99,161.240005,,2013-04-06 16:53:00,
2013-04-06 13:00:00,33.0,28.0,-100.00,SE,135,12.0,-999.0,79,0.01,,,-99.99,175.160004,,2013-04-06 17:00:00,
2013-04-06 13:43:00,33.0,28.0,-100.00,SE,135,12.0,-999.0,79,0.01,,,-99.99,175.160004,,2013-04-06 17:43:00,
2013-04-06 13:53:00,33.0,28.0,-100.00,SE,135,12.0,-999.0,79,0.01,,,-99.99,175.160004,,2013-04-06 17:53:00,
2013-04-06 14:00:00,35.0,27.0,-100.00,SE,135,14.0,-999.0,74,-99.99,,,-99.99,199.520004,,2013-04-06 18:00:00,
2013-04-06 14:43:00,35.0,27.0,-100.00,SE,135,14.0,-999.0,74,-99.99,,,-99.99,199.520004,,2013-04-06 18:43:00,
2013-04-06 14:52:00,35.0,27.0,-100.00,SE,135,14.0,-999.0,74,-99.99,,,-99.99,199.520004,,2013-04-06 18:52:00,
2013-04-06 15:00:00,36.0,27.0,-100.00,SE,135,13.0,-999.0,69,-99.99,,,-99.99,178.639999,,2013-04-06 19:00:00,
2013-04-06 15:42:00,36.0,27.0,-100.00,SE,135,13.0,-999.0,69,-99.99,,,-99.99,178.639999,,2013-04-06 19:42:00,
2013-04-06 15:54:00,36.0,27.0,-100.00,SE,135,13.0,-999.0,69,-99.99,,,-99.99,178.639999,,2013-04-06 19:54:00,
2013-04-06 16:00:00,37.0,28.0,-100.00,SE,135,16.0,-999.0,69,-99.99,,,-99.99,138.039993,,2013-04-06 20:00:00,
2013-04-06 16:42:00,37.0,28.0,-100.00,SE,135,16.0,-999.0,69,-99.99,,,-99.99,138.039993,,2013-04-06 20:42:00,
2013-04-06 16:53:00,37.0,28.0,-100.00,SE,135,16.0,-999.0,69,-99.99,,,-99.99,138.039993,,2013-04-06 20:53:00,
2013-04-06 17:00:00,38.0,27.0,-100.00,SE,135,18.0,-999.0,65,-99.99,,,-99.99,126.440002,,2013-04-06 21:00:00,
2013-04-06 17:43:00,38.0,27.0,-100.00,SE,135,18.0,-999.0,65,-99.99,,,-99.99,126.440002,,2013-04-06 21:43:00,
2013-04-06 17:53:00,38.0,27.0,-100.00,SE,135,18.0,-999.0,65,-99.99,,,-99.99,126.440002,,2013-04-06 21:53:00,
2013-04-06 18:00:00,39.0,28.0,-100.00,SE,135,17.0,-999.0,63,-99.99,,,-99.99,118.320000,,2013-04-06 22:00:00,
2013-04-06 18:44:00,39.0,28.0,-100.00,SE,135,17.0,-999.0,63,-99.99,,,-99.99,118.320000,,2013-04-06 22:44:00,
2013-04-06 18:55:00,39.0,28.0,-100.00,SE,135,17.0,-999.0,63,-99.99,,,-99.99,118.320000,,2013-04-06 22:55:00,
2013-04-06 19:00:00,39.0,30.0,-100.00,SE,135,13.0,-999.0,70,-99.99,,,-99.99,15.080000,,2013-04-06 23:00:00,
2013-04-06 19:43:00,39.0,30.0,-100.00,SE,135,13.0,-999.0,70,-99.99,,,-99.99,15.080000,,2013-04-06 23:43:00,
2013-04-06 19:53:00,39.0,30.0,-100.00,SE,135,13.0,-999.0,70,-99.99,,,-99.99,15.080000,,2013-04-06 23:53:00,
2013-04-06 21:00:00,40.0,28.0,-100.00,SE,135,14.0,-999.0,63,-99.99,,,-99.99,0.000000,,2013-04-07 01:00:00,
2013-04-06 21:43:00,40.0,28.0,-100.00,SE,135,14.0,-999.0,63,-99.99,,,-99.99,0.000000,,2013-04-07 01:43:00,
2013-04-06 21:53:00,40.0,28.0,-100.00,SE,135,14.0,-999.0,63,-99.99,,,-99.99,0.000000,,2013-04-07 01:53:00,
2013-04-06 22:00:00,38.0,30.0,-100.00,SE,135,12.0,-999.0,74,0.01,,,-99.99,0.000000,,2013-04-07 02:00:00,
2013-04-06 22:43:00,38.0,30.0,-100.00,SE,135,12.0,-999.0,74,0.01,,,-99.99,0.000000,,2013-04-07 02:43:00,
2013-04-06 22:52:00,38.0,30.0,-100.00,SE,135,12.0,-999.0,74,0.01,,,-99.99,0.000000,,2013-04-07 02:52:00,
2013-04-06 23:00:00,40.0,29.0,-100.00,SE,135,12.0,-999.0,63,-99.99,,,-99.99,0.000000,,2013-04-07 03:00:00,
2013-04-06 23:44:00,40.0,29.0,-100.00,SE,135,12.0,-999.0,63,-99.99,,,-99.99,0.000000,,2013-04-07 03:44:00,
2013-04-06 23:55:00,40.0,29.0,-100.00,SE,135,12.0,-999.0,63,-99.99,,,-99.99,0.000000,,2013-04-07 03:55:00,